Time;durP1;ratioP1;P1;durP2;ratioP2;P2;SDS_P1;SDS_P2;PMS_P1;PMS_P2;Temp;Humidity;BMP_temperature;BMP_pressure;BME280_temperature;BME280_humidity;BME280_pressure;Samples;Min_cycle;Max_cycle;Signal;HPM_P1;HPM_P2
2021/10/14 00:00:30;;;;;;;20.00;3.73;;;;;;;;;;4974923;28;20028;-89
2021/10/14 00:02:55;;;;;;;31.80;4.38;;;;;;;;;;4992373;28;20273;-89
2021/10/14 00:05:20;;;;;;;26.47;4.83;;;;;;;;;;4975106;28;20117;-89
2021/10/14 00:07:46;;;;;;;24.77;4.43;;;;;;;;;;4992328;28;20065;-90
2021/10/14 00:10:11;;;;;;;16.58;3.50;;;;;;;;;;4974759;28;20022;-89
2021/10/14 00:12:36;;;;;;;17.63;3.72;;;;;;;;;;4995789;28;20026;-89
2021/10/14 00:15:02;;;;;;;19.00;4.00;;;;;;;;;;4992266;28;20025;-89
2021/10/14 00:17:28;;;;;;;20.60;3.40;;;;;;;;;;4993372;28;20029;-89
2021/10/14 00:19:53;;;;;;;20.90;4.30;;;;;;;;;;4973750;28;20045;-89
2021/10/14 00:22:18;;;;;;;18.48;3.33;;;;;;;;;;4992276;28;20022;-89
2021/10/14 00:24:44;;;;;;;21.73;4.03;;;;;;;;;;4992029;28;20027;-89
2021/10/14 00:27:09;;;;;;;20.42;4.00;;;;;;;;;;4974570;28;20022;-89
2021/10/14 00:29:34;;;;;;;17.25;3.78;;;;;;;;;;4974581;28;20019;-89
2021/10/14 00:32:00;;;;;;;21.13;4.47;;;;;;;;;;4975558;28;20038;-89
2021/10/14 00:34:25;;;;;;;20.38;4.25;;;;;;;;;;4992129;28;20097;-89
2021/10/14 00:36:50;;;;;;;13.10;3.63;;;;;;;;;;4974501;28;20019;-89
2021/10/14 00:39:16;;;;;;;20.83;4.03;;;;;;;;;;4991988;28;20018;-89
2021/10/14 00:41:41;;;;;;;19.40;3.55;;;;;;;;;;4991887;28;20029;-89
2021/10/14 00:44:06;;;;;;;18.27;4.00;;;;;;;;;;4991715;28;20371;-89
2021/10/14 00:46:31;;;;;;;11.50;2.83;;;;;;;;;;4991733;28;20018;-89
2021/10/14 00:48:56;;;;;;;17.60;3.73;;;;;;;;;;4974218;28;20640;-89
2021/10/14 00:51:22;;;;;;;19.70;3.50;;;;;;;;;;4973845;28;20034;-89
2021/10/14 00:53:47;;;;;;;20.70;3.30;;;;;;;;;;4975519;28;20292;-89
2021/10/14 00:56:13;;;;;;;20.63;3.83;;;;;;;;;;4973867;28;20026;-89
2021/10/14 00:58:39;;;;;;;17.35;3.35;;;;;;;;;;4974116;28;20073;-89
2021/10/14 01:01:05;;;;;;;21.48;4.60;;;;;;;;;;4991484;28;20101;-89
2021/10/14 01:03:30;;;;;;;28.42;4.43;;;;;;;;;;4974046;28;20109;-89
2021/10/14 01:05:56;;;;;;;24.55;4.13;;;;;;;;;;4973851;28;20488;-89
2021/10/14 01:08:21;;;;;;;16.80;4.15;;;;;;;;;;4973988;28;20042;-89
2021/10/14 01:10:47;;;;;;;12.63;2.50;;;;;;;;;;4992199;28;20120;-89
2021/10/14 01:13:12;;;;;;;21.13;3.90;;;;;;;;;;4973910;28;20289;-89
2021/10/14 01:15:37;;;;;;;20.65;4.13;;;;;;;;;;4973888;28;20268;-89
2021/10/14 01:18:03;;;;;;;23.42;3.70;;;;;;;;;;4973932;28;20050;-89
2021/10/14 01:20:28;;;;;;;16.13;3.20;;;;;;;;;;4991323;28;20024;-90
2021/10/14 01:22:54;;;;;;;27.60;4.37;;;;;;;;;;4991509;28;20113;-89
2021/10/14 01:25:19;;;;;;;17.67;3.55;;;;;;;;;;4991235;28;20385;-89
2021/10/14 01:27:44;;;;;;;15.48;2.78;;;;;;;;;;4991253;28;20015;-89
2021/10/14 01:30:10;;;;;;;21.98;3.65;;;;;;;;;;4975513;28;20050;-89
2021/10/14 01:32:35;;;;;;;24.77;4.20;;;;;;;;;;4977722;28;20038;-89
2021/10/14 01:35:03;;;;;;;19.83;3.85;;;;;;;;;;4977573;28;20030;-89
2021/10/14 01:37:28;;;;;;;16.02;3.53;;;;;;;;;;4977656;28;20084;-89
2021/10/14 01:39:53;;;;;;;18.88;4.03;;;;;;;;;;4994977;28;20022;-89
2021/10/14 01:42:19;;;;;;;16.23;4.07;;;;;;;;;;4977564;28;20117;-89
2021/10/14 01:44:44;;;;;;;24.08;4.00;;;;;;;;;;4995054;28;20030;-89
2021/10/14 01:47:09;;;;;;;29.90;5.05;;;;;;;;;;4978003;28;20033;-89
2021/10/14 01:49:34;;;;;;;24.05;3.83;;;;;;;;;;4977397;28;20030;-89
2021/10/14 01:52:00;;;;;;;16.85;3.13;;;;;;;;;;4977392;28;20379;-89
2021/10/14 01:54:25;;;;;;;19.00;3.57;;;;;;;;;;4995021;28;20386;-89
2021/10/14 01:56:50;;;;;;;15.88;3.78;;;;;;;;;;4977451;28;20265;-89
2021/10/14 01:59:15;;;;;;;13.17;2.93;;;;;;;;;;4995039;28;20033;-90
2021/10/14 02:01:40;;;;;;;11.63;2.40;;;;;;;;;;4977382;28;20439;-89
2021/10/14 02:04:05;;;;;;;15.57;2.87;;;;;;;;;;4994862;28;20348;-90
2021/10/14 02:06:31;;;;;;;18.13;3.77;;;;;;;;;;4977177;28;20023;-89
2021/10/14 02:08:56;;;;;;;20.47;4.00;;;;;;;;;;4996767;28;20058;-90
2021/10/14 02:11:22;;;;;;;14.75;3.08;;;;;;;;;;4977031;28;20389;-89
2021/10/14 02:13:47;;;;;;;16.25;3.38;;;;;;;;;;4977021;28;20501;-89
2021/10/14 02:16:12;;;;;;;15.02;3.47;;;;;;;;;;4977068;28;20190;-89
2021/10/14 02:18:37;;;;;;;13.07;2.53;;;;;;;;;;4994595;28;20478;-89
2021/10/14 02:21:03;;;;;;;12.40;2.90;;;;;;;;;;4977170;28;20504;-90
2021/10/14 02:23:28;;;;;;;16.63;2.63;;;;;;;;;;4994531;28;20378;-89
2021/10/14 02:25:53;;;;;;;14.65;2.78;;;;;;;;;;4978147;28;20606;-89
2021/10/14 02:28:18;;;;;;;18.88;3.03;;;;;;;;;;4978411;28;20537;-89
2021/10/14 02:30:44;;;;;;;15.13;3.03;;;;;;;;;;4977577;28;20402;-89
2021/10/14 02:33:09;;;;;;;13.13;2.58;;;;;;;;;;4976473;28;20285;-89
2021/10/14 02:35:34;;;;;;;15.77;2.90;;;;;;;;;;4976768;28;20026;-89
2021/10/14 02:37:59;;;;;;;15.10;2.53;;;;;;;;;;4976563;28;20018;-89
2021/10/14 02:40:25;;;;;;;15.07;3.43;;;;;;;;;;4994117;28;20817;-89
2021/10/14 02:42:50;;;;;;;11.23;2.37;;;;;;;;;;4975368;28;20274;-89
2021/10/14 02:45:15;;;;;;;18.63;2.97;;;;;;;;;;4993925;28;20262;-89
2021/10/14 02:47:40;;;;;;;11.32;3.42;;;;;;;;;;4977652;28;20641;-89
2021/10/14 02:50:06;;;;;;;13.20;2.50;;;;;;;;;;4993714;28;20089;-89
2021/10/14 02:52:31;;;;;;;15.25;3.30;;;;;;;;;;4994047;28;20033;-89
2021/10/14 02:54:56;;;;;;;16.83;2.95;;;;;;;;;;4976287;28;20018;-90
2021/10/14 02:57:21;;;;;;;8.35;2.40;;;;;;;;;;4976458;28;20084;-89
2021/10/14 02:59:46;;;;;;;13.23;2.77;;;;;;;;;;4976224;28;20022;-89
2021/10/14 03:02:12;;;;;;;15.43;3.17;;;;;;;;;;4994066;28;20270;-89
2021/10/14 03:04:37;;;;;;;14.27;2.90;;;;;;;;;;4994663;28;20022;-89
2021/10/14 03:07:02;;;;;;;15.73;2.72;;;;;;;;;;4993635;28;20692;-90
2021/10/14 03:09:27;;;;;;;19.15;2.60;;;;;;;;;;4975933;28;20027;-89
2021/10/14 03:11:53;;;;;;;20.83;4.85;;;;;;;;;;4976074;28;20085;-89
2021/10/14 03:14:18;;;;;;;19.67;3.72;;;;;;;;;;4976024;28;20488;-89
2021/10/14 03:16:43;;;;;;;28.08;5.30;;;;;;;;;;4975996;28;20528;-89
2021/10/14 03:19:08;;;;;;;13.23;2.83;;;;;;;;;;4993607;28;20089;-89
2021/10/14 03:21:33;;;;;;;20.20;3.33;;;;;;;;;;4976029;28;20023;-89
2021/10/14 03:23:59;;;;;;;14.27;2.60;;;;;;;;;;4977917;28;20128;-89
2021/10/14 03:26:24;;;;;;;20.93;2.87;;;;;;;;;;4975746;28;20262;-88
2021/10/14 03:28:50;;;;;;;20.97;2.73;;;;;;;;;;4975601;28;20281;-89
2021/10/14 03:31:16;;;;;;;12.52;2.72;;;;;;;;;;4975836;28;20793;-89
2021/10/14 03:33:41;;;;;;;13.00;3.05;;;;;;;;;;4992882;28;20092;-89
2021/10/14 03:36:06;;;;;;;13.60;2.73;;;;;;;;;;4992944;28;20367;-89
2021/10/14 03:38:31;;;;;;;14.80;3.00;;;;;;;;;;4992972;28;20281;-89
2021/10/14 03:40:56;;;;;;;14.23;3.00;;;;;;;;;;4977086;28;20253;-89
2021/10/14 03:43:22;;;;;;;17.60;2.70;;;;;;;;;;4975683;28;20828;-89
2021/10/14 03:45:47;;;;;;;14.88;3.08;;;;;;;;;;4992654;28;20081;-89
2021/10/14 03:48:12;;;;;;;15.50;2.30;;;;;;;;;;4975166;28;20062;-89
2021/10/14 03:50:37;;;;;;;12.30;2.40;;;;;;;;;;4974859;28;20733;-89
2021/10/14 03:53:03;;;;;;;15.63;2.83;;;;;;;;;;4992360;28;20026;-90
2021/10/14 03:55:28;;;;;;;19.42;2.88;;;;;;;;;;4974726;28;20621;-89
2021/10/14 03:57:55;;;;;;;11.90;2.40;;;;;;;;;;4974831;28;20026;-89
2021/10/14 04:00:20;;;;;;;16.45;3.22;;;;;;;;;;4974565;28;20265;-89
2021/10/14 04:02:45;;;;;;;18.45;2.83;;;;;;;;;;4974901;28;20019;-89
2021/10/14 04:05:11;;;;;;;12.70;2.47;;;;;;;;;;4993933;28;20022;-89
2021/10/14 04:07:36;;;;;;;16.50;2.70;;;;;;;;;;4976472;28;20266;-90
2021/10/14 04:10:01;;;;;;;17.10;2.70;;;;;;;;;;4975265;28;20828;-90
2021/10/14 04:12:26;;;;;;;13.88;2.53;;;;;;;;;;4975186;28;20296;-90
2021/10/14 04:14:52;;;;;;;17.13;2.67;;;;;;;;;;4975612;28;20010;-90
2021/10/14 04:17:17;;;;;;;23.10;3.53;;;;;;;;;;4975328;28;20014;-90
2021/10/14 04:19:42;;;;;;;19.88;3.22;;;;;;;;;;4992610;28;20030;-90
2021/10/14 04:22:07;;;;;;;13.55;2.47;;;;;;;;;;4975056;28;20018;-90
2021/10/14 04:24:33;;;;;;;11.87;2.40;;;;;;;;;;4974949;28;20026;-90
2021/10/14 04:26:58;;;;;;;17.05;2.67;;;;;;;;;;4975038;28;20262;-90
2021/10/14 04:29:24;;;;;;;13.40;3.10;;;;;;;;;;4975014;28;20026;-90
2021/10/14 04:31:49;;;;;;;17.30;2.72;;;;;;;;;;4992181;28;20296;-90
2021/10/14 04:34:15;;;;;;;16.40;3.70;;;;;;;;;;4975511;28;20081;-90
2021/10/14 04:36:40;;;;;;;15.52;3.05;;;;;;;;;;4974956;28;20509;-90
2021/10/14 04:39:06;;;;;;;12.50;2.77;;;;;;;;;;4974818;28;20062;-90
2021/10/14 04:41:31;;;;;;;14.90;2.40;;;;;;;;;;4992070;28;20250;-89
2021/10/14 04:43:56;;;;;;;18.17;2.88;;;;;;;;;;4974742;28;20096;-90
2021/10/14 04:46:22;;;;;;;13.35;2.47;;;;;;;;;;4974578;28;20022;-90
2021/10/14 04:48:47;;;;;;;19.85;3.63;;;;;;;;;;4992574;28;20706;-90
2021/10/14 04:51:12;;;;;;;18.42;2.70;;;;;;;;;;4992271;28;20034;-90
2021/10/14 04:53:37;;;;;;;18.42;3.40;;;;;;;;;;4974613;28;20707;-90
2021/10/14 04:56:03;;;;;;;13.20;2.70;;;;;;;;;;4974367;28;20117;-89
2021/10/14 04:58:29;;;;;;;20.20;3.72;;;;;;;;;;4974933;28;20057;-90
2021/10/14 05:00:54;;;;;;;17.58;3.28;;;;;;;;;;4974658;28;20037;-90
2021/10/14 05:03:20;;;;;;;18.27;3.43;;;;;;;;;;4991944;28;20018;-90
2021/10/14 05:05:46;;;;;;;22.00;3.15;;;;;;;;;;4974964;28;20529;-89
2021/10/14 05:08:11;;;;;;;22.13;3.95;;;;;;;;;;4975781;28;20030;-90
2021/10/14 05:10:37;;;;;;;16.63;2.75;;;;;;;;;;4974143;28;20463;-90
2021/10/14 05:13:02;;;;;;;10.35;3.28;;;;;;;;;;4992083;28;20415;-90
2021/10/14 05:15:27;;;;;;;11.30;2.73;;;;;;;;;;4991715;28;20030;-90
2021/10/14 05:17:52;;;;;;;15.70;2.95;;;;;;;;;;4974265;28;20282;-90
2021/10/14 05:20:18;;;;;;;13.40;2.65;;;;;;;;;;4974018;28;20587;-90
2021/10/14 05:22:43;;;;;;;20.58;2.70;;;;;;;;;;4974130;28;20084;-90
2021/10/14 05:25:09;;;;;;;18.83;3.50;;;;;;;;;;4976372;28;20026;-90
2021/10/14 05:27:34;;;;;;;18.13;2.92;;;;;;;;;;4974305;28;20027;-90
2021/10/14 05:29:59;;;;;;;12.23;2.42;;;;;;;;;;4974546;28;20094;-90
2021/10/14 05:32:24;;;;;;;14.98;3.00;;;;;;;;;;4974103;28;20074;-90
2021/10/14 05:34:50;;;;;;;16.83;2.37;;;;;;;;;;4973824;28;20120;-89
2021/10/14 05:37:15;;;;;;;18.73;3.57;;;;;;;;;;4974169;28;20026;-90
2021/10/14 05:39:40;;;;;;;13.45;2.60;;;;;;;;;;4973756;28;20277;-89
2021/10/14 05:42:05;;;;;;;19.13;3.00;;;;;;;;;;4975025;28;20045;-89
2021/10/14 05:44:30;;;;;;;18.58;2.83;;;;;;;;;;4991500;28;20023;-89
2021/10/14 05:46:56;;;;;;;22.37;3.60;;;;;;;;;;4973817;28;20061;-89
2021/10/14 05:49:21;;;;;;;10.82;2.38;;;;;;;;;;4992005;28;20272;-89
2021/10/14 05:51:46;;;;;;;10.20;2.45;;;;;;;;;;4976065;28;20034;-89
2021/10/14 05:54:11;;;;;;;19.00;2.50;;;;;;;;;;4976083;28;20025;-89
2021/10/14 05:56:37;;;;;;;13.85;2.80;;;;;;;;;;4993753;28;20261;-89
2021/10/14 05:59:02;;;;;;;14.07;2.63;;;;;;;;;;4973650;28;20019;-89
2021/10/14 06:01:27;;;;;;;17.43;2.53;;;;;;;;;;4973729;28;20830;-89
2021/10/14 06:03:54;;;;;;;15.27;2.47;;;;;;;;;;4973427;28;20090;-89
2021/10/14 06:06:19;;;;;;;13.20;2.10;;;;;;;;;;5061809;23;20049;-89
2021/10/14 06:08:45;;;;;;;13.52;2.67;;;;;;;;;;5007230;28;20462;-90
2021/10/14 06:11:12;;;;;;;15.32;2.80;;;;;;;;;;5005753;28;20048;-89
2021/10/14 06:13:37;;;;;;;14.73;3.10;;;;;;;;;;5012227;28;20025;-89
2021/10/14 06:16:02;;;;;;;11.98;2.42;;;;;;;;;;5025388;28;20462;-89
2021/10/14 06:18:28;;;;;;;15.68;3.58;;;;;;;;;;5033606;28;20112;-90
2021/10/14 06:20:56;;;;;;;15.67;2.50;;;;;;;;;;5033731;28;20025;-90
2021/10/14 06:23:26;;;;;;;11.98;2.15;;;;;;;;;;5013858;28;20272;-89
2021/10/14 06:25:58;;;;;;;17.85;2.70;;;;;;;;;;5043568;28;20056;-90
2021/10/14 06:28:23;;;;;;;17.35;3.00;;;;;;;;;;5035274;28;20370;-90
2021/10/14 06:30:49;;;;;;;14.98;3.15;;;;;;;;;;5035305;28;20039;-90
2021/10/14 06:33:15;;;;;;;16.48;2.22;;;;;;;;;;5032199;28;20022;-90
2021/10/14 06:35:40;;;;;;;13.70;2.58;;;;;;;;;;5027610;28;20060;-88
2021/10/14 06:38:07;;;;;;;16.98;2.50;;;;;;;;;;5014785;28;20057;-88
2021/10/14 06:40:34;;;;;;;15.15;3.28;;;;;;;;;;5011304;28;20112;-88
2021/10/14 06:43:00;;;;;;;11.07;2.20;;;;;;;;;;5038985;28;20125;-88
2021/10/14 06:45:25;;;;;;;13.85;2.95;;;;;;;;;;5031204;28;20053;-88
2021/10/14 06:47:50;;;;;;;18.50;2.42;;;;;;;;;;5014984;28;20035;-88
2021/10/14 06:50:16;;;;;;;8.88;1.88;;;;;;;;;;5014282;28;20052;-88
2021/10/14 06:52:41;;;;;;;14.65;2.58;;;;;;;;;;5017952;28;20047;-88
2021/10/14 06:55:07;;;;;;;10.77;2.25;;;;;;;;;;5031369;28;20018;-88
2021/10/14 06:57:32;;;;;;;14.30;2.45;;;;;;;;;;5014800;28;20473;-87
2021/10/14 06:59:57;;;;;;;12.05;2.67;;;;;;;;;;5032742;28;20481;-87
2021/10/14 07:02:22;;;;;;;11.63;2.75;;;;;;;;;;5015021;28;20017;-87
2021/10/14 07:04:48;;;;;;;18.17;3.45;;;;;;;;;;5029587;28;20021;-88
2021/10/14 07:07:13;;;;;;;9.75;2.50;;;;;;;;;;5021811;28;20699;-88
2021/10/14 07:09:39;;;;;;;9.05;2.00;;;;;;;;;;5031206;28;20108;-87
2021/10/14 07:12:10;;;;;;;15.60;3.35;;;;;;;;;;5025490;28;20543;-88
2021/10/14 07:14:35;;;;;;;;;;;;;;;;;;5014609;28;20021;-88
2021/10/14 07:17:00;;;;;;;12.88;2.65;;;;;;;;;;5016460;28;19994;-88
2021/10/14 07:19:28;;;;;;;9.50;1.98;;;;;;;;;;5015427;28;20029;-88
2021/10/14 07:21:54;;;;;;;11.63;2.88;;;;;;;;;;5014270;28;20021;-88
2021/10/14 07:24:19;;;;;;;9.23;2.45;;;;;;;;;;5027251;28;20040;-88
2021/10/14 07:26:44;;;;;;;11.05;2.20;;;;;;;;;;5014124;28;20477;-88
2021/10/14 07:29:09;;;;;;;11.45;2.63;;;;;;;;;;5013847;28;20027;-88
2021/10/14 07:31:35;;;;;;;14.20;2.00;;;;;;;;;;5042630;28;20551;-88
2021/10/14 07:34:02;;;;;;;12.25;2.42;;;;;;;;;;5031153;28;20283;-88
2021/10/14 07:36:27;;;;;;;15.85;2.80;;;;;;;;;;5015228;28;20025;-88
2021/10/14 07:38:52;;;;;;;11.27;2.70;;;;;;;;;;5030615;28;20075;-88
2021/10/14 07:41:18;;;;;;;14.30;5.60;;;;;;;;;;5030651;28;20026;-88
2021/10/14 07:43:43;;;;;;;15.85;4.93;;;;;;;;;;5014143;28;20044;-88
2021/10/14 07:46:08;;;;;;;13.90;2.75;;;;;;;;;;5030319;28;20516;-88
2021/10/14 07:48:34;;;;;;;7.68;2.50;;;;;;;;;;5028451;28;20457;-88
2021/10/14 07:51:00;;;;;;;8.77;1.85;;;;;;;;;;5013578;28;20099;-88
2021/10/14 07:53:25;;;;;;;17.27;2.45;;;;;;;;;;5019767;28;20025;-88
2021/10/14 07:55:51;;;;;;;11.65;2.22;;;;;;;;;;5013480;28;20048;-88
2021/10/14 07:58:16;;;;;;;9.40;2.70;;;;;;;;;;5013897;28;20053;-89
2021/10/14 08:00:42;;;;;;;12.65;1.90;;;;;;;;;;5013733;28;20022;-88
2021/10/14 08:03:10;;;;;;;7.63;2.10;;;;;;;;;;5038385;28;20012;-88
2021/10/14 08:05:35;;;;;;;8.35;1.95;;;;;;;;;;5030549;28;20025;-88
2021/10/14 08:08:01;;;;;;;12.57;2.28;;;;;;;;;;5024019;28;20025;-88
2021/10/14 08:10:29;;;;;;;20.40;3.22;;;;;;;;;;5012500;28;20018;-88
2021/10/14 08:12:55;;;;;;;8.88;1.90;;;;;;;;;;5013074;28;20056;-88
2021/10/14 08:15:20;;;;;;;31.88;4.82;;;;;;;;;;5013326;28;20056;-89
2021/10/14 08:17:57;;;;;;;;;;;;;;;;;;;;;
2021/10/14 08:20:26;;;;;;;13.55;2.88;;;;;;;;;;5046722;28;20032;-89
2021/10/14 08:22:54;;;;;;;6.22;1.92;;;;;;;;;;5030869;28;20025;-88
2021/10/14 08:25:19;;;;;;;6.60;1.77;;;;;;;;;;5011771;28;20029;-88
2021/10/14 08:27:46;;;;;;;6.47;1.42;;;;;;;;;;5012326;28;20013;-88
2021/10/14 08:30:13;;;;;;;10.23;1.80;;;;;;;;;;5011252;28;20023;-88
2021/10/14 08:32:38;;;;;;;3.38;1.73;;;;;;;;;;5028591;28;20025;-89
2021/10/14 08:35:03;;;;;;;6.53;1.60;;;;;;;;;;5018954;28;20021;-88
2021/10/14 08:37:29;;;;;;;5.40;1.70;;;;;;;;;;5029451;28;20381;-88
2021/10/14 08:39:55;;;;;;;7.15;1.77;;;;;;;;;;5011720;28;20025;-88
2021/10/14 08:42:20;;;;;;;7.30;1.70;;;;;;;;;;5012954;28;20029;-88
2021/10/14 08:44:46;;;;;;;4.72;1.88;;;;;;;;;;5031925;28;20100;-88
2021/10/14 08:47:12;;;;;;;3.67;1.17;;;;;;;;;;5028257;28;20045;-89
2021/10/14 08:49:42;;;;;;;13.65;2.70;;;;;;;;;;5040977;28;20770;-88
2021/10/14 08:52:09;;;;;;;6.80;1.52;;;;;;;;;;5028697;28;20047;-89
2021/10/14 08:54:35;;;;;;;5.03;1.20;;;;;;;;;;5012398;28;20481;-88
2021/10/14 08:57:01;;;;;;;6.88;1.48;;;;;;;;;;5020394;28;20157;-88
2021/10/14 08:59:26;;;;;;;2.17;1.10;;;;;;;;;;5034828;28;20014;-88
2021/10/14 09:02:03;;;;;;;4.50;1.60;;;;;;;;;;5035103;28;20021;-89
2021/10/14 09:04:31;;;;;;;18.85;1.60;;;;;;;;;;5035054;28;20022;-89
2021/10/14 09:07:11;;;;;;;1.40;1.20;;;;;;;;;;5033002;28;20042;-89
2021/10/14 09:09:38;;;;;;;2.00;1.20;;;;;;;;;;5028126;28;20033;-89
2021/10/14 09:12:06;;;;;;;3.65;1.08;;;;;;;;;;5014000;28;20037;-88
2021/10/14 09:14:32;;;;;;;2.22;1.52;;;;;;;;;;5026646;28;20017;-88
2021/10/14 09:16:58;;;;;;;2.88;1.00;;;;;;;;;;5013666;28;20025;-88
2021/10/14 09:19:25;;;;;;;1.95;1.20;;;;;;;;;;5011853;28;20017;-88
2021/10/14 09:21:59;;;;;;;2.65;1.10;;;;;;;;;;5028713;28;20060;-88
2021/10/14 09:24:27;;;;;;;1.48;0.77;;;;;;;;;;5011737;28;20032;-89
2021/10/14 09:26:53;;;;;;;3.13;0.80;;;;;;;;;;5017722;28;20388;-88
2021/10/14 09:29:20;;;;;;;3.92;1.00;;;;;;;;;;5030138;28;20022;-89
2021/10/14 09:31:51;;;;;;;1.95;0.60;;;;;;;;;;5021149;28;20044;-89
2021/10/14 09:34:24;;;;;;;3.67;0.80;;;;;;;;;;5012658;28;20075;-89
2021/10/14 09:36:52;;;;;;;1.65;0.80;;;;;;;;;;5011849;28;20029;-89
2021/10/14 09:39:17;;;;;;;1.58;0.80;;;;;;;;;;5012150;28;20074;-89
2021/10/14 09:41:43;;;;;;;2.15;0.98;;;;;;;;;;5012128;28;20025;-89
2021/10/14 09:44:17;;;;;;;5.68;1.77;;;;;;;;;;5045273;28;20025;-89
2021/10/14 09:46:47;;;;;;;1.95;1.00;;;;;;;;;;5028577;28;20026;-89
2021/10/14 09:49:28;;;;;;;2.83;1.13;;;;;;;;;;5017172;28;20033;-89
2021/10/14 09:51:53;;;;;;;4.80;1.70;;;;;;;;;;5015257;28;20044;-89
2021/10/14 09:54:19;;;;;;;4.82;1.00;;;;;;;;;;5033920;28;20033;-89
2021/10/14 09:56:45;;;;;;;12.57;1.55;;;;;;;;;;5037340;28;20081;-89
2021/10/14 09:59:10;;;;;;;8.52;1.58;;;;;;;;;;5032618;28;20022;-89
2021/10/14 10:01:38;;;;;;;4.57;0.98;;;;;;;;;;5022720;28;20108;-89
2021/10/14 10:04:04;;;;;;;6.40;1.55;;;;;;;;;;5015289;28;20382;-88
2021/10/14 10:06:30;;;;;;;4.30;1.65;;;;;;;;;;5015398;28;20055;-89
2021/10/14 10:08:58;;;;;;;4.40;1.30;;;;;;;;;;5033552;28;20026;-89
2021/10/14 10:11:24;;;;;;;6.53;1.55;;;;;;;;;;5020972;28;20048;-89
2021/10/14 10:13:53;;;;;;;4.38;1.33;;;;;;;;;;5028047;28;20102;-88
2021/10/14 10:16:18;;;;;;;8.02;1.98;;;;;;;;;;5031788;28;20120;-88
2021/10/14 10:18:51;;;;;;;4.88;1.30;;;;;;;;;;5015540;28;20112;-88
2021/10/14 10:21:49;;;;;;;3.67;1.40;;;;;;;;;;5019700;28;20029;-88
2021/10/14 10:24:20;;;;;;;6.72;1.63;;;;;;;;;;4999576;28;20048;-88
2021/10/14 10:26:45;;;;;;;5.13;1.77;;;;;;;;;;5015392;28;20017;-89
2021/10/14 10:29:16;;;;;;;7.78;1.80;;;;;;;;;;5015414;28;20491;-89
2021/10/14 10:31:55;;;;;;;7.93;1.58;;;;;;;;;;5015379;28;20029;-88
2021/10/14 10:34:36;;;;;;;4.28;1.40;;;;;;;;;;5015206;28;20067;-89
2021/10/14 10:37:13;;;;;;;5.45;1.58;;;;;;;;;;5015327;28;20032;-89
2021/10/14 10:39:48;;;;;;;7.95;1.50;;;;;;;;;;5022377;28;20025;-89
2021/10/14 10:42:24;;;;;;;5.80;1.83;;;;;;;;;;5033346;28;20104;-88
2021/10/14 10:44:49;;;;;;;9.90;1.48;;;;;;;;;;5033209;28;20025;-89
2021/10/14 10:47:33;;;;;;;7.68;1.92;;;;;;;;;;5016125;28;20021;-89
2021/10/14 10:49:58;;;;;;;2.95;1.30;;;;;;;;;;5018314;28;20030;-89
2021/10/14 10:52:34;;;;;;;4.05;1.60;;;;;;;;;;5019514;28;20039;-88
2021/10/14 10:55:00;;;;;;;4.97;1.38;;;;;;;;;;5016479;28;20079;-88
2021/10/14 10:57:45;;;;;;;5.78;1.60;;;;;;;;;;5025459;28;20025;-90
2021/10/14 11:00:17;;;;;;;8.27;1.88;;;;;;;;;;5040381;28;20110;-89
2021/10/14 11:02:42;;;;;;;8.35;2.25;;;;;;;;;;5051746;28;20029;-89
2021/10/14 11:05:08;;;;;;;7.10;1.50;;;;;;;;;;5027037;28;20380;-89
2021/10/14 11:07:33;;;;;;;4.07;1.35;;;;;;;;;;5036178;28;20064;-89
2021/10/14 11:09:59;;;;;;;7.43;1.83;;;;;;;;;;5027845;28;20031;-89
2021/10/14 11:12:32;;;;;;;22.05;2.55;;;;;;;;;;5012152;28;20059;-90
2021/10/14 11:23:11;;;;;;;7.57;1.65;;;;;;;;;;4986402;28;20049;-89
2021/10/14 11:25:42;;;;;;;4.90;2.00;;;;;;;;;;4961482;28;20030;-89
2021/10/14 11:28:13;;;;;;;4.50;2.00;;;;;;;;;;5224453;23;20087;-89
2021/10/14 11:30:44;;;;;;;7.03;2.22;;;;;;;;;;5025683;28;20037;-89
2021/10/14 11:33:14;;;;;;;4.75;1.60;;;;;;;;;;5020575;28;20067;-88
2021/10/14 11:35:40;;;;;;;9.63;1.58;;;;;;;;;;5025139;28;20029;-89
2021/10/14 11:38:08;;;;;;;5.38;1.90;;;;;;;;;;5009641;28;20394;-89
2021/10/14 11:40:35;;;;;;;4.05;2.03;;;;;;;;;;5046077;28;20029;-89
2021/10/14 11:43:01;;;;;;;7.57;1.63;;;;;;;;;;5033742;28;20027;-89
2021/10/14 11:45:27;;;;;;;5.35;1.60;;;;;;;;;;5022907;28;20025;-89
2021/10/14 11:47:55;;;;;;;6.80;2.25;;;;;;;;;;5025624;28;20100;-89
2021/10/14 11:50:32;;;;;;;7.45;2.05;;;;;;;;;;5024768;28;20038;-89
2021/10/14 11:53:03;;;;;;;10.88;2.47;;;;;;;;;;5025349;28;20060;-89
2021/10/14 11:55:35;;;;;;;15.73;3.03;;;;;;;;;;5018720;28;20123;-90
2021/10/14 11:58:09;;;;;;;13.43;3.03;;;;;;;;;;5043445;28;20056;-89
2021/10/14 12:00:39;;;;;;;8.25;3.00;;;;;;;;;;5028827;28;20017;-89
2021/10/14 12:05:34;;;;;;;8.02;2.20;;;;;;;;;;5083815;22;20173;-89
2021/10/14 12:10:34;;;;;;;8.15;2.25;;;;;;;;;;5181981;23;20057;-89
2021/10/14 12:13:06;;;;;;;14.27;4.28;;;;;;;;;;5030121;28;20021;-89
2021/10/14 12:15:31;;;;;;;9.10;2.28;;;;;;;;;;5026954;28;20445;-89
2021/10/14 12:17:59;;;;;;;10.45;2.15;;;;;;;;;;5039992;28;20124;-89
2021/10/14 12:20:26;;;;;;;9.43;2.42;;;;;;;;;;5030985;28;20075;-89
2021/10/14 12:22:51;;;;;;;9.13;2.80;;;;;;;;;;5029535;28;20026;-89
2021/10/14 12:25:22;;;;;;;15.05;2.60;;;;;;;;;;5027948;28;20021;-89
2021/10/14 12:27:49;;;;;;;12.38;2.60;;;;;;;;;;5032255;28;20047;-89
2021/10/14 12:30:18;;;;;;;10.00;2.45;;;;;;;;;;5028501;28;20111;-89
2021/10/14 12:32:44;;;;;;;10.27;2.35;;;;;;;;;;5029450;28;20029;-89
2021/10/14 12:35:14;;;;;;;6.95;1.92;;;;;;;;;;5012796;28;20018;-89
2021/10/14 12:43:15;;;;;;;10.10;1.83;;;;;;;;;;5004361;28;20045;-90
2021/10/14 12:53:24;;;;;;;6.45;2.05;;;;;;;;;;5026661;28;20033;-89
2021/10/14 12:55:58;;;;;;;5.35;1.77;;;;;;;;;;5059967;23;20053;-89
2021/10/14 12:58:29;;;;;;;7.10;1.77;;;;;;;;;;5008964;28;20021;-89
2021/10/14 13:01:05;;;;;;;10.32;3.05;;;;;;;;;;4996970;28;20058;-89
2021/10/14 13:03:31;;;;;;;9.93;2.28;;;;;;;;;;5001855;28;20109;-88
2021/10/14 13:06:01;;;;;;;8.77;2.28;;;;;;;;;;4992968;28;20028;-88
2021/10/14 13:08:34;;;;;;;8.15;2.20;;;;;;;;;;4993300;28;20053;-88
2021/10/14 13:11:00;;;;;;;;;;;;;;;;;;4996445;28;20034;-88
2021/10/14 13:13:29;;;;;;;9.95;2.67;;;;;;;;;;5003610;28;19936;-88
2021/10/14 13:16:00;;;;;;;17.65;3.25;;;;;;;;;;5017982;23;20062;-89
2021/10/14 13:18:30;;;;;;;10.65;2.45;;;;;;;;;;4986563;28;20457;-89
2021/10/14 13:20:59;;;;;;;9.07;2.95;;;;;;;;;;4951143;28;20026;-89
2021/10/14 13:23:25;;;;;;;13.35;2.80;;;;;;;;;;4969807;28;20029;-89
2021/10/14 13:25:53;;;;;;;9.20;2.95;;;;;;;;;;4975257;28;20030;-88
2021/10/14 13:28:19;;;;;;;6.28;2.13;;;;;;;;;;4984958;28;20061;-89
2021/10/14 13:30:46;;;;;;;10.38;3.03;;;;;;;;;;4984202;28;20030;-88
2021/10/14 13:33:19;;;;;;;19.05;2.67;;;;;;;;;;4969523;28;20023;-89
2021/10/14 13:35:47;;;;;;;14.98;3.00;;;;;;;;;;4951778;28;20479;-89
2021/10/14 13:38:14;;;;;;;15.07;3.53;;;;;;;;;;4951851;28;20066;-89
2021/10/14 13:40:46;;;;;;;15.35;4.07;;;;;;;;;;4986502;28;20022;-89
2021/10/14 13:43:17;;;;;;;14.95;3.65;;;;;;;;;;4971148;28;20085;-89
2021/10/14 13:45:45;;;;;;;12.30;3.28;;;;;;;;;;4982294;28;20034;-89
2021/10/14 13:48:14;;;;;;;17.42;3.35;;;;;;;;;;4998421;28;20025;-89
2021/10/14 13:50:45;;;;;;;12.88;3.25;;;;;;;;;;4986902;28;20030;-89
2021/10/14 13:55:41;;;;;;;8.90;3.15;;;;;;;;;;5110862;22;20411;-90
2021/10/14 13:58:08;;;;;;;10.82;4.43;;;;;;;;;;4995233;23;20113;-89
2021/10/14 14:00:38;;;;;;;10.75;3.38;;;;;;;;;;5008985;28;20022;-89
2021/10/14 14:03:16;;;;;;;13.95;2.95;;;;;;;;;;5058637;23;20061;-90
2021/10/14 14:05:52;;;;;;;12.65;3.22;;;;;;;;;;4992069;28;20025;-89
2021/10/14 14:08:20;;;;;;;14.18;3.50;;;;;;;;;;4990846;28;20029;-90
2021/10/14 14:10:48;;;;;;;12.05;3.28;;;;;;;;;;4987332;28;20494;-89
2021/10/14 14:13:17;;;;;;;11.25;3.20;;;;;;;;;;4999542;28;20078;-89
2021/10/14 14:15:45;;;;;;;17.10;4.07;;;;;;;;;;5010911;28;20711;-89
2021/10/14 14:23:37;;;;;;;11.18;3.13;;;;;;;;;;5018285;23;20156;-89
2021/10/14 14:28:39;;;;;;;14.23;4.32;;;;;;;;;;5202989;23;20049;-89
2021/10/14 14:31:05;;;;;;;18.85;4.45;;;;;;;;;;5025688;28;20112;-89
2021/10/14 14:39:05;;;;;;;24.10;5.22;;;;;;;;;;2361984;23;20021;-89
2021/10/14 14:41:31;;;;;;;20.67;4.88;;;;;;;;;;4997988;28;20517;-89
2021/10/14 14:43:58;;;;;;;21.35;4.63;;;;;;;;;;4998118;28;20076;-89
2021/10/14 14:46:27;;;;;;;22.17;4.70;;;;;;;;;;5016201;28;20347;-89
2021/10/14 14:48:57;;;;;;;16.95;4.47;;;;;;;;;;4997884;28;20501;-90
2021/10/14 14:53:57;;;;;;;18.67;4.10;;;;;;;;;;5045524;23;20049;-90
2021/10/14 14:56:27;;;;;;;16.83;4.38;;;;;;;;;;4985442;28;20025;-90
2021/10/14 14:58:55;;;;;;;13.77;4.70;;;;;;;;;;4998471;28;20072;-90
2021/10/14 15:01:25;;;;;;;12.30;3.80;;;;;;;;;;4995273;28;20053;-89
2021/10/14 15:03:50;;;;;;;14.63;4.47;;;;;;;;;;4995818;28;20747;-90
2021/10/14 15:06:17;;;;;;;18.65;4.90;;;;;;;;;;4994663;28;20461;-89
2021/10/14 15:08:44;;;;;;;25.10;5.57;;;;;;;;;;4998196;28;20068;-89
2021/10/14 15:11:09;;;;;;;20.55;6.05;;;;;;;;;;4997777;28;20129;-90
2021/10/14 15:13:37;;;;;;;16.17;4.57;;;;;;;;;;4997202;28;20108;-89
2021/10/14 15:16:06;;;;;;;19.63;5.22;;;;;;;;;;5019785;22;20418;-89
2021/10/14 15:18:34;;;;;;;21.10;5.93;;;;;;;;;;4996253;28;20378;-89